Time;durP1;ratioP1;P1;durP2;ratioP2;P2;SDS_P1;SDS_P2;PMS_P1;PMS_P2;Temp;Humidity;BMP_temperature;BMP_pressure;BME280_temperature;BME280_humidity;BME280_pressure;Samples;Min_cycle;Max_cycle;Signal;HPM_P1;HPM_P2
2021/06/04 00:00:13;;;;;;;5.83;3.20;;;17.60;99.90;;;;;;5055332;28;20448;-72
2021/06/04 00:02:40;;;;;;;5.77;2.40;;;17.60;99.90;;;;;;5055740;28;20411;-72
2021/06/04 00:05:08;;;;;;;5.20;2.50;;;17.60;99.90;;;;;;5055761;28;20538;-71
2021/06/04 00:07:34;;;;;;;5.20;2.17;;;17.50;99.90;;;;;;5056661;28;20400;-71
2021/06/04 00:10:00;;;;;;;5.37;2.60;;;17.50;99.90;;;;;;5056674;28;20400;-71
2021/06/04 00:12:25;;;;;;;5.50;2.33;;;17.40;99.90;;;;;;5056474;28;20897;-72
2021/06/04 00:14:52;;;;;;;6.20;2.40;;;17.40;99.90;;;;;;5056024;28;20185;-72
2021/06/04 00:17:23;;;;;;;6.10;2.63;;;17.40;99.90;;;;;;5056702;28;20180;-72
2021/06/04 00:19:49;;;;;;;5.40;2.10;;;17.40;99.90;;;;;;5049589;28;20455;-72
2021/06/04 00:22:22;;;;;;;6.27;2.30;;;17.40;99.90;;;;;;5036377;28;20408;-73
2021/06/04 00:24:50;;;;;;;5.50;2.33;;;17.30;99.90;;;;;;5035901;28;20800;-72
2021/06/04 00:27:17;;;;;;;5.60;2.40;;;17.30;99.90;;;;;;5036341;28;20453;-72
2021/06/04 00:29:43;;;;;;;6.57;2.83;;;17.30;99.90;;;;;;5055077;28;20428;-72
2021/06/04 00:32:12;;;;;;;6.40;2.77;;;17.30;99.90;;;;;;5056345;28;20411;-72
2021/06/04 00:34:39;;;;;;;7.10;3.47;;;17.30;99.90;;;;;;5055714;28;20457;-72
2021/06/04 00:37:04;;;;;;;5.10;2.50;;;17.30;99.90;;;;;;5054744;28;20419;-71
2021/06/04 00:39:32;;;;;;;7.30;2.40;;;17.30;99.90;;;;;;5056064;28;20856;-74
2021/06/04 00:42:03;;;;;;;5.33;2.60;;;17.20;99.90;;;;;;5055821;28;20177;-72
2021/06/04 00:44:29;;;;;;;6.73;2.60;;;17.10;99.90;;;;;;5035888;28;20531;-72
2021/06/04 00:46:55;;;;;;;7.50;2.70;;;17.10;99.90;;;;;;5035814;28;20424;-72
2021/06/04 00:49:24;;;;;;;6.47;3.00;;;17.10;99.90;;;;;;5035895;28;20797;-71
2021/06/04 00:51:51;;;;;;;5.50;2.70;;;17.00;99.90;;;;;;5034602;28;20413;-72
2021/06/04 00:54:19;;;;;;;7.60;3.53;;;17.00;99.90;;;;;;5035227;28;20502;-72
2021/06/04 00:56:46;;;;;;;8.67;3.07;;;17.00;99.90;;;;;;5035495;28;20491;-72
2021/06/04 00:59:13;;;;;;;5.70;2.30;;;16.90;99.90;;;;;;5035524;28;20448;-72
2021/06/04 01:01:41;;;;;;;8.40;3.13;;;16.80;99.90;;;;;;5048041;28;20438;-72
2021/06/04 01:04:17;;;;;;;5.40;2.40;;;16.80;99.90;;;;;;5054994;28;20424;-72
2021/06/04 01:07:19;;;;;;;6.43;2.57;;;16.80;99.90;;;;;;5055302;28;20928;-72
2021/06/04 01:10:09;;;;;;;6.03;2.83;;;16.80;99.90;;;;;;5055634;28;20801;-71
2021/06/04 01:12:46;;;;;;;7.90;2.63;;;16.70;99.90;;;;;;5048123;28;20494;-73
2021/06/04 01:15:42;;;;;;;7.40;2.73;;;16.70;99.90;;;;;;5033853;28;20845;-71
2021/06/04 01:18:43;;;;;;;6.73;3.37;;;16.60;99.90;;;;;;5035347;28;20401;-72
2021/06/04 01:21:21;;;;;;;7.40;2.87;;;16.60;99.90;;;;;;5033850;28;20436;-71
2021/06/04 01:23:56;;;;;;;7.80;2.90;;;16.60;99.90;;;;;;5033367;28;20935;-73
2021/06/04 01:26:42;;;;;;;6.13;2.83;;;16.50;99.90;;;;;;5033894;28;21016;-71
2021/06/04 01:29:13;;;;;;;5.50;2.30;;;16.50;99.90;;;;;;5034971;28;20413;-72
2021/06/04 01:31:44;;;;;;;7.27;3.37;;;16.50;99.90;;;;;;5035134;28;20408;-72
2021/06/04 01:34:18;;;;;;;7.70;3.17;;;16.50;99.90;;;;;;5034592;28;20848;-71
2021/06/04 01:36:54;;;;;;;6.60;2.70;;;16.50;99.90;;;;;;5050068;28;20431;-72
2021/06/04 01:39:28;;;;;;;5.80;2.73;;;16.50;99.90;;;;;;5053597;28;20523;-71
2021/06/04 01:41:56;;;;;;;8.00;4.03;;;16.40;99.90;;;;;;5054795;28;20458;-72
2021/06/04 01:44:24;;;;;;;7.27;3.20;;;16.50;99.90;;;;;;5054313;28;20500;-71
2021/06/04 01:46:56;;;;;;;7.00;3.73;;;16.40;99.90;;;;;;5054883;28;20413;-71
2021/06/04 01:49:27;;;;;;;8.90;3.97;;;16.40;99.90;;;;;;5054739;28;20407;-72
2021/06/04 01:52:07;;;;;;;7.77;3.13;;;16.40;99.90;;;;;;5035976;28;20510;-71
2021/06/04 01:54:42;;;;;;;6.60;2.80;;;16.30;99.90;;;;;;5035704;28;20441;-71
2021/06/04 01:57:16;;;;;;;7.07;3.07;;;16.30;99.90;;;;;;5034460;28;20438;-71
2021/06/04 01:59:46;;;;;;;7.33;3.07;;;16.30;99.90;;;;;;5034546;28;20921;-72
2021/06/04 02:02:12;;;;;;;7.43;3.03;;;16.30;99.90;;;;;;5034546;28;20396;-72
2021/06/04 02:04:43;;;;;;;7.60;3.00;;;16.30;99.90;;;;;;5032533;28;20435;-72
2021/06/04 02:07:12;;;;;;;6.57;2.40;;;16.20;99.90;;;;;;5034425;28;20400;-71
2021/06/04 02:09:38;;;;;;;6.33;2.50;;;16.20;99.90;;;;;;5034346;28;20449;-71
2021/06/04 02:12:06;;;;;;;7.00;2.87;;;16.20;99.90;;;;;;5034145;28;20436;-71
2021/06/04 02:14:41;;;;;;;6.87;2.60;;;16.20;99.90;;;;;;5033741;28;20435;-71
2021/06/04 02:17:14;;;;;;;7.30;3.00;;;16.20;99.90;;;;;;5046745;28;20455;-72
2021/06/04 02:19:52;;;;;;;8.87;3.53;;;16.20;99.90;;;;;;5053984;28;20505;-72
2021/06/04 02:22:22;;;;;;;7.13;3.07;;;16.10;99.90;;;;;;5039812;28;20465;-72
2021/06/04 02:25:05;;;;;;;8.30;3.93;;;16.10;99.90;;;;;;5053621;28;20426;-72
2021/06/04 02:27:38;;;;;;;7.20;2.90;;;16.10;99.90;;;;;;5052639;28;20461;-71
2021/06/04 02:30:25;;;;;;;7.47;3.33;;;16.10;99.90;;;;;;5044106;28;20471;-72
2021/06/04 02:33:15;;;;;;;6.20;2.57;;;16.10;99.90;;;;;;5033589;28;20407;-72
2021/06/04 02:35:48;;;;;;;9.77;3.80;;;16.10;99.90;;;;;;5032629;28;20439;-72
2021/06/04 02:38:25;;;;;;;9.80;3.87;;;16.10;99.90;;;;;;5032927;28;20408;-72
2021/06/04 02:41:01;;;;;;;7.37;3.13;;;16.10;99.90;;;;;;5034025;28;20458;-71
2021/06/04 02:43:43;;;;;;;10.50;3.23;;;16.10;99.90;;;;;;5033509;28;20842;-72
2021/06/04 02:46:14;;;;;;;7.47;3.07;;;16.00;99.90;;;;;;5052007;28;20423;-71
2021/06/04 02:48:44;;;;;;;10.60;4.00;;;16.00;99.90;;;;;;5053518;28;20411;-72
2021/06/04 02:51:28;;;;;;;9.30;3.10;;;15.90;99.90;;;;;;5053603;28;20797;-72
2021/06/04 02:54:15;;;;;;;8.17;3.50;;;15.90;99.90;;;;;;5039864;28;20467;-73
2021/06/04 02:56:53;;;;;;;7.80;3.60;;;15.90;99.90;;;;;;5033660;28;20830;-72
2021/06/04 02:59:29;;;;;;;8.33;3.97;;;15.90;99.90;;;;;;5033416;28;20463;-72
2021/06/04 03:02:06;;;;;;;8.10;4.23;;;15.90;99.90;;;;;;5033641;28;20822;-72
2021/06/04 03:04:37;;;;;;;9.33;4.13;;;15.80;99.90;;;;;;5031651;28;20443;-73
2021/06/04 03:07:06;;;;;;;8.57;3.17;;;15.80;99.90;;;;;;5031620;28;20412;-72
2021/06/04 03:09:36;;;;;;;8.13;3.43;;;15.80;99.90;;;;;;5032020;28;20506;-72
2021/06/04 03:12:14;;;;;;;9.43;3.87;;;15.80;99.90;;;;;;5033279;28;20854;-72
2021/06/04 03:14:40;;;;;;;9.10;4.50;;;15.70;99.90;;;;;;5032933;28;20427;-72
2021/06/04 03:17:09;;;;;;;10.23;4.37;;;15.70;99.90;;;;;;5032094;28;20424;-72
2021/06/04 03:19:34;;;;;;;13.13;3.60;;;15.70;99.90;;;;;;5033042;28;21176;-72
2021/06/04 03:22:22;;;;;;;9.83;3.40;;;15.70;99.90;;;;;;5047851;28;20435;-71
2021/06/04 03:24:48;;;;;;;10.57;3.93;;;15.70;99.90;;;;;;5052729;28;20538;-72
2021/06/04 03:27:15;;;;;;;11.40;4.10;;;15.60;99.90;;;;;;5053274;28;20449;-72
2021/06/04 03:29:44;;;;;;;9.50;3.97;;;15.70;99.90;;;;;;5053172;28;20418;-71
2021/06/04 03:32:12;;;;;;;9.30;3.60;;;15.60;99.90;;;;;;5036338;28;20431;-71
2021/06/04 03:34:41;;;;;;;7.50;3.60;;;15.60;99.90;;;;;;5031470;28;20466;-72
2021/06/04 03:37:08;;;;;;;9.93;4.70;;;15.70;99.90;;;;;;5032044;28;20756;-72
2021/06/04 03:39:39;;;;;;;9.13;3.93;;;15.70;99.90;;;;;;5033289;28;20505;-72
2021/06/04 03:42:07;;;;;;;8.77;3.87;;;15.70;99.90;;;;;;5033147;28;20412;-72
2021/06/04 03:44:37;;;;;;;8.40;3.90;;;15.70;99.90;;;;;;5032572;28;20431;-73
2021/06/04 03:47:04;;;;;;;8.30;3.43;;;15.70;99.90;;;;;;5034401;28;20918;-72
2021/06/04 03:49:31;;;;;;;9.10;3.80;;;15.70;99.90;;;;;;5033144;28;20407;-72
2021/06/04 03:51:58;;;;;;;8.80;4.10;;;15.80;99.90;;;;;;5031777;28;20929;-72
2021/06/04 03:54:32;;;;;;;9.03;3.83;;;15.80;99.90;;;;;;5032266;28;20435;-71
2021/06/04 03:57:00;;;;;;;7.20;3.40;;;15.90;99.90;;;;;;5033206;28;20914;-72
2021/06/04 03:59:26;;;;;;;7.03;3.37;;;15.90;99.90;;;;;;5033072;28;20550;-73
2021/06/04 04:02:01;;;;;;;7.70;3.63;;;16.00;99.90;;;;;;5045478;28;20947;-72
2021/06/04 04:04:27;;;;;;;8.60;3.90;;;16.00;99.90;;;;;;5052574;28;20426;-72
2021/06/04 04:06:54;;;;;;;7.63;3.10;;;16.10;99.90;;;;;;5052915;28;20490;-73
2021/06/04 04:09:20;;;;;;;8.27;3.93;;;16.10;99.90;;;;;;5051345;28;20422;-71
2021/06/04 04:11:48;;;;;;;9.40;4.03;;;16.10;99.90;;;;;;5052650;28;20890;-74
2021/06/04 04:14:14;;;;;;;8.23;3.83;;;16.20;99.90;;;;;;5052201;28;20437;-72
2021/06/04 04:16:42;;;;;;;7.40;2.97;;;16.30;99.90;;;;;;5034186;28;20972;-72
2021/06/04 04:19:09;;;;;;;7.90;3.60;;;16.30;99.90;;;;;;5035344;28;20462;-72
2021/06/04 04:21:35;;;;;;;9.07;3.80;;;16.40;99.90;;;;;;5036492;28;20412;-72
2021/06/04 04:24:11;;;;;;;7.60;3.87;;;16.60;99.90;;;;;;5034534;28;20901;-71
2021/06/04 04:26:39;;;;;;;7.63;3.53;;;16.80;99.90;;;;;;5036352;28;20389;-72
2021/06/04 04:29:05;;;;;;;7.10;3.40;;;17.00;99.90;;;;;;5036231;28;20470;-71
2021/06/04 04:31:36;;;;;;;7.20;3.63;;;17.30;99.90;;;;;;5054666;28;20519;-71
2021/06/04 04:34:05;;;;;;;8.00;3.73;;;17.50;99.90;;;;;;5055898;28;20919;-72
2021/06/04 04:36:36;;;;;;;6.60;2.80;;;17.60;99.90;;;;;;5056107;28;20447;-71
2021/06/04 04:39:04;;;;;;;9.10;3.97;;;17.80;99.90;;;;;;5055902;28;20496;-72
2021/06/04 04:41:30;;;;;;;8.47;3.90;;;18.00;99.90;;;;;;5055935;28;20404;-72
2021/06/04 04:43:56;;;;;;;7.70;3.73;;;18.00;99.90;;;;;;5037136;28;20425;-73
2021/06/04 04:46:24;;;;;;;6.60;3.60;;;18.20;99.90;;;;;;5055881;28;20398;-71
2021/06/04 04:48:50;;;;;;;7.80;3.43;;;18.30;99.90;;;;;;5055878;28;20499;-71
2021/06/04 04:51:17;;;;;;;8.63;3.27;;;18.30;99.90;;;;;;5055697;28;20857;-73
2021/06/04 04:53:44;;;;;;;8.73;4.13;;;18.40;99.90;;;;;;5042059;28;20180;-71
2021/06/04 04:56:10;;;;;;;9.00;3.57;;;18.60;99.90;;;;;;5036043;28;20419;-72
2021/06/04 04:58:36;;;;;;;7.67;3.80;;;18.70;99.90;;;;;;5035621;28;20981;-72
2021/06/04 05:01:05;;;;;;;7.40;3.80;;;18.90;99.90;;;;;;5035619;28;20401;-73
2021/06/04 05:03:30;;;;;;;7.07;3.67;;;19.10;99.90;;;;;;5035067;28;20419;-73
2021/06/04 05:05:56;;;;;;;7.90;3.40;;;19.40;99.90;;;;;;5035347;28;21003;-72
2021/06/04 05:08:22;;;;;;;6.83;3.30;;;19.70;99.90;;;;;;5035448;28;20228;-73
2021/06/04 05:10:48;;;;;;;9.13;3.90;;;19.90;99.90;;;;;;5035394;28;20408;-74
2021/06/04 05:13:15;;;;;;;8.77;3.97;;;20.10;99.90;;;;;;5035054;28;20170;-73
2021/06/04 05:15:42;;;;;;;6.93;3.77;;;20.20;99.90;;;;;;5035834;28;20772;-72
2021/06/04 05:18:11;;;;;;;10.40;3.80;;;20.20;99.90;;;;;;5054881;28;20511;-72
2021/06/04 05:20:37;;;;;;;6.40;2.77;;;20.30;99.90;;;;;;5054635;28;20416;-71
2021/06/04 05:23:07;;;;;;;7.10;3.50;;;20.50;99.90;;;;;;5054737;28;20426;-72
2021/06/04 05:25:38;;;;;;;7.73;3.73;;;20.50;99.90;;;;;;5054978;28;20419;-72
2021/06/04 05:28:04;;;;;;;7.20;3.40;;;20.50;99.90;;;;;;5054982;28;20404;-73
2021/06/04 05:30:34;;;;;;;5.73;2.53;;;20.50;99.90;;;;;;5053145;28;20438;-73
2021/06/04 05:33:00;;;;;;;7.87;3.70;;;20.40;99.90;;;;;;5054696;28;20414;-73
2021/06/04 05:35:28;;;;;;;6.50;3.50;;;20.30;99.90;;;;;;5054821;28;20889;-72
2021/06/04 05:37:54;;;;;;;7.43;4.07;;;20.30;99.90;;;;;;5054952;28;20185;-73
2021/06/04 05:40:27;;;;;;;7.03;2.90;;;20.20;99.90;;;;;;5054753;28;20447;-72
2021/06/04 05:42:53;;;;;;;6.50;3.30;;;20.20;99.90;;;;;;5054437;28;20384;-72
2021/06/04 05:45:21;;;;;;;7.47;3.73;;;20.20;99.90;;;;;;5052443;28;20940;-71
2021/06/04 05:47:47;;;;;;;6.93;3.97;;;20.20;99.90;;;;;;5034876;28;20174;-72
2021/06/04 05:50:21;;;;;;;5.80;2.70;;;20.20;99.90;;;;;;5034594;28;20443;-72
2021/06/04 05:52:47;;;;;;;8.90;3.57;;;20.20;99.90;;;;;;5034527;28;20400;-73
2021/06/04 05:55:17;;;;;;;6.33;3.03;;;20.30;99.90;;;;;;5034170;28;20428;-72
2021/06/04 05:57:43;;;;;;;7.27;3.43;;;20.30;99.90;;;;;;5034281;28;20961;-72
2021/06/04 06:00:15;;;;;;;7.07;3.40;;;20.50;99.90;;;;;;5035085;28;20563;-72
2021/06/04 06:02:41;;;;;;;6.50;2.87;;;20.60;99.90;;;;;;5054345;28;20183;-72
2021/06/04 06:05:08;;;;;;;7.73;3.67;;;20.70;99.90;;;;;;5053644;28;20434;-71
2021/06/04 06:07:34;;;;;;;7.90;3.60;;;20.80;99.90;;;;;;5054182;28;20177;-72
2021/06/04 06:10:00;;;;;;;6.57;2.70;;;20.80;99.90;;;;;;5054276;28;20412;-72
2021/06/04 06:12:26;;;;;;;7.83;4.20;;;20.90;99.90;;;;;;5054259;28;20897;-71
2021/06/04 06:14:51;;;;;;;6.70;3.00;;;21.00;99.90;;;;;;5051095;28;20204;-72
2021/06/04 06:17:17;;;;;;;5.60;3.20;;;21.20;99.90;;;;;;5034499;28;20174;-72
2021/06/04 06:19:43;;;;;;;6.83;3.03;;;21.30;99.90;;;;;;5032782;28;20738;-71
2021/06/04 06:22:09;;;;;;;5.50;2.90;;;21.40;99.90;;;;;;5034217;28;20216;-72
2021/06/04 06:24:35;;;;;;;7.40;4.03;;;21.50;99.90;;;;;;5033185;28;20198;-71
2021/06/04 06:27:02;;;;;;;6.80;3.70;;;21.70;99.90;;;;;;5034417;28;20417;-72
2021/06/04 06:29:29;;;;;;;6.50;3.10;;;21.90;99.90;;;;;;5033781;28;20417;-72
2021/06/04 06:31:55;;;;;;;6.20;3.00;;;21.90;99.90;;;;;;5033889;28;20802;-72
2021/06/04 06:34:21;;;;;;;7.13;3.20;;;22.00;99.90;;;;;;5033475;28;20520;-71
2021/06/04 06:36:47;;;;;;;5.83;3.17;;;22.20;99.90;;;;;;5032592;28;20421;-72
2021/06/04 06:39:17;;;;;;;8.40;3.90;;;22.40;99.90;;;;;;5042984;28;20465;-72
2021/06/04 06:41:45;;;;;;;5.93;3.17;;;22.50;99.90;;;;;;5046212;28;20420;-72
2021/06/04 06:44:12;;;;;;;7.03;2.90;;;22.60;99.90;;;;;;5047394;28;20955;-72
2021/06/04 06:46:40;;;;;;;9.20;4.73;;;22.70;99.90;;;;;;5056838;28;20497;-71
2021/06/04 06:49:07;;;;;;;6.27;3.27;;;23.00;99.90;;;;;;5060066;28;20425;-73
2021/06/04 06:51:33;;;;;;;6.00;3.10;;;23.20;99.90;;;;;;5053406;28;20417;-70
2021/06/04 06:54:00;;;;;;;7.03;4.00;;;23.50;99.90;;;;;;5047037;28;20426;-71
2021/06/04 06:56:26;;;;;;;8.83;3.00;;;23.80;99.90;;;;;;5031627;28;20468;-70
2021/06/04 06:58:52;;;;;;;5.93;2.97;;;24.20;99.90;;;;;;5040018;28;20494;-70
2021/06/04 07:01:18;;;;;;;6.83;3.80;;;24.60;99.90;;;;;;5048938;28;20526;-73
2021/06/04 07:03:44;;;;;;;5.80;3.10;;;24.90;99.90;;;;;;5047161;28;20490;-68
2021/06/04 07:06:20;;;;;;;5.27;2.70;;;25.10;99.90;;;;;;5040372;28;20173;-76
2021/06/04 07:08:46;;;;;;;6.23;3.53;;;25.30;99.90;;;;;;5047099;28;20428;-74
2021/06/04 07:11:12;;;;;;;6.13;2.80;;;25.60;99.90;;;;;;5033465;28;20409;-72
2021/06/04 07:13:38;;;;;;;5.83;3.20;;;26.00;99.90;;;;;;5048648;28;20467;-75
2021/06/04 07:16:07;;;;;;;5.07;3.00;;;26.30;99.90;;;;;;5048456;28;20459;-74
2021/06/04 07:18:33;;;;;;;6.10;3.67;;;26.50;99.90;;;;;;5046079;28;20209;-72
2021/06/04 07:20:59;;;;;;;5.40;2.87;;;26.60;98.50;;;;;;5046145;28;20460;-74
2021/06/04 07:23:27;;;;;;;5.73;3.00;;;26.60;98.40;;;;;;5039134;28;20919;-74
2021/06/04 07:25:53;;;;;;;5.00;2.77;;;26.70;98.60;;;;;;5053229;28;20430;-74
2021/06/04 07:28:27;;;;;;;5.80;2.57;;;26.80;98.90;;;;;;5049669;28;20439;-71
2021/06/04 07:30:56;;;;;;;5.00;2.33;;;26.90;98.50;;;;;;5049301;28;20788;-69
2021/06/04 07:33:28;;;;;;;6.53;2.93;;;26.90;97.40;;;;;;5037331;28;20413;-69
2021/06/04 07:35:57;;;;;;;6.40;3.03;;;26.70;97.30;;;;;;5052921;28;20519;-69
2021/06/04 07:38:26;;;;;;;12.47;7.87;;;26.60;97.70;;;;;;5051798;28;20427;-72
2021/06/04 07:40:56;;;;;;;6.27;3.27;;;26.50;97.60;;;;;;5052612;28;20910;-71
2021/06/04 07:43:26;;;;;;;5.47;2.57;;;26.40;97.40;;;;;;5042286;28;20808;-69
2021/06/04 07:45:54;;;;;;;4.90;2.50;;;26.40;97.70;;;;;;5042374;28;20453;-72
2021/06/04 07:48:20;;;;;;;6.20;2.73;;;26.40;98.40;;;;;;5041269;28;20455;-73
2021/06/04 07:50:49;;;;;;;5.13;2.43;;;26.50;97.80;;;;;;5045057;28;20947;-69
2021/06/04 07:53:18;;;;;;;5.93;3.00;;;26.70;98.00;;;;;;5036015;28;20421;-69
2021/06/04 07:55:45;;;;;;;6.17;3.30;;;27.10;97.40;;;;;;5044275;28;20767;-72
2021/06/04 07:58:11;;;;;;;4.90;2.50;;;27.30;96.80;;;;;;5055065;28;20452;-70
2021/06/04 08:00:40;;;;;;;7.40;2.67;;;27.50;96.30;;;;;;5053875;28;20832;-70
2021/06/04 08:03:07;;;;;;;6.80;2.50;;;27.70;96.00;;;;;;5058016;28;20427;-69
2021/06/04 08:05:35;;;;;;;5.20;2.70;;;28.00;96.30;;;;;;5053859;28;20478;-72
2021/06/04 08:08:03;;;;;;;5.50;2.10;;;28.30;95.60;;;;;;5056202;28;20423;-72
2021/06/04 08:10:33;;;;;;;7.53;3.93;;;28.50;94.60;;;;;;5056366;28;20783;-73
2021/06/04 08:12:59;;;;;;;3.87;2.07;;;28.70;92.80;;;;;;5055773;28;20390;-70
2021/06/04 08:15:38;;;;;;;3.90;1.50;;;29.00;92.10;;;;;;5054790;28;21241;-73
2021/06/04 08:18:06;;;;;;;3.93;1.40;;;29.50;90.50;;;;;;5056082;28;20390;-72
2021/06/04 08:20:33;;;;;;;4.10;1.53;;;30.40;84.70;;;;;;5053999;28;20483;-72
2021/06/04 08:23:03;;;;;;;5.03;1.80;;;31.20;83.20;;;;;;5054553;28;20391;-72
2021/06/04 08:25:36;;;;;;;4.17;1.97;;;32.00;77.00;;;;;;5054927;28;20410;-68
2021/06/04 08:28:02;;;;;;;3.90;1.70;;;32.90;75.60;;;;;;5055911;28;20475;-71
2021/06/04 08:30:28;;;;;;;3.60;1.70;;;33.80;75.10;;;;;;5055923;28;20462;-72
2021/06/04 08:32:55;;;;;;;3.60;1.90;;;34.80;72.70;;;;;;5055609;28;20412;-72
2021/06/04 08:35:22;;;;;;;3.80;2.20;;;35.80;69.50;;;;;;5048254;28;20463;-71
2021/06/04 08:37:49;;;;;;;4.43;2.40;;;36.70;66.10;;;;;;5035725;28;20409;-69
2021/06/04 08:40:28;;;;;;;4.33;2.70;;;37.30;64.70;;;;;;5035537;28;20491;-70
2021/06/04 08:42:58;;;;;;;3.70;2.13;;;37.80;61.10;;;;;;5035352;28;20417;-70
2021/06/04 08:45:54;;;;;;;3.87;2.13;;;37.50;58.70;;;;;;5055104;28;20432;-70
2021/06/04 08:48:49;;;;;;;3.70;2.20;;;37.10;58.00;;;;;;5055482;28;20428;-70
2021/06/04 08:51:28;;;;;;;3.87;2.27;;;37.40;57.90;;;;;;5054911;28;20435;-69
2021/06/04 08:54:06;;;;;;;3.50;2.30;;;37.90;57.10;;;;;;5054958;28;20461;-70
2021/06/04 08:56:38;;;;;;;4.63;2.70;;;38.20;57.40;;;;;;5055305;28;20494;-70
2021/06/04 08:59:12;;;;;;;4.37;2.40;;;38.30;56.00;;;;;;5055325;28;20412;-69
2021/06/04 09:01:43;;;;;;;4.23;2.40;;;38.20;56.60;;;;;;5055423;28;20415;-70
2021/06/04 09:04:29;;;;;;;3.13;1.97;;;37.30;55.20;;;;;;5052619;28;20455;-70
2021/06/04 09:07:04;;;;;;;3.97;2.47;;;36.90;56.00;;;;;;5039721;28;20432;-70
2021/06/04 09:09:45;;;;;;;3.93;2.30;;;37.00;55.90;;;;;;5054372;28;20487;-70
2021/06/04 09:12:20;;;;;;;3.60;2.20;;;36.80;56.00;;;;;;5054354;28;20420;-68
2021/06/04 09:14:47;;;;;;;3.50;2.23;;;37.20;55.40;;;;;;5046263;28;20448;-69
2021/06/04 09:17:16;;;;;;;3.07;1.90;;;37.40;54.30;;;;;;5053800;28;20832;-68
2021/06/04 09:19:48;;;;;;;4.20;2.60;;;37.50;55.30;;;;;;5053204;28;20436;-68
2021/06/04 09:22:14;;;;;;;3.67;2.03;;;38.00;54.80;;;;;;5053683;28;20460;-71
2021/06/04 09:24:47;;;;;;;3.70;2.10;;;38.30;53.80;;;;;;5048375;28;20531;-69
2021/06/04 09:27:28;;;;;;;3.23;2.03;;;38.60;52.60;;;;;;5041068;28;20431;-68
2021/06/04 09:30:07;;;;;;;8.10;3.30;;;38.60;53.10;;;;;;5040724;28;20452;-67
2021/06/04 09:32:33;;;;;;;3.53;2.20;;;38.10;54.60;;;;;;5065133;28;20416;-67
2021/06/04 09:35:18;;;;;;;3.83;3.07;;;38.00;54.80;;;;;;5055878;28;20489;-68
2021/06/04 09:37:44;;;;;;;5.30;2.77;;;37.90;54.90;;;;;;5045308;28;20197;-67
2021/06/04 09:40:31;;;;;;;3.63;2.83;;;37.90;54.30;;;;;;5050969;28;20423;-68
2021/06/04 09:43:06;;;;;;;3.10;2.30;;;37.90;54.50;;;;;;5044032;28;20423;-68
2021/06/04 09:45:37;;;;;;;4.40;2.73;;;38.20;54.60;;;;;;5048392;28;20542;-68
2021/06/04 09:48:17;;;;;;;3.50;2.77;;;38.30;54.40;;;;;;5054282;28;20420;-68
2021/06/04 09:50:47;;;;;;;4.63;2.70;;;38.40;55.10;;;;;;5049852;28;20490;-66
2021/06/04 09:53:19;;;;;;;4.47;2.27;;;38.40;54.70;;;;;;5054070;28;20411;-68
2021/06/04 09:55:50;;;;;;;4.40;3.10;;;37.90;54.80;;;;;;5052266;28;20515;-67
2021/06/04 09:58:24;;;;;;;3.30;2.60;;;37.60;56.10;;;;;;5041305;28;20437;-68
2021/06/04 10:01:06;;;;;;;4.07;2.73;;;37.80;55.70;;;;;;5049339;28;20420;-68
2021/06/04 10:03:47;;;;;;;5.10;2.80;;;37.70;56.10;;;;;;5063482;28;20437;-69
2021/06/04 10:06:34;;;;;;;4.37;2.90;;;37.80;55.70;;;;;;5034011;28;20420;-68
2021/06/04 10:09:20;;;;;;;3.17;2.20;;;37.70;55.40;;;;;;5046195;28;20551;-66
2021/06/04 10:11:53;;;;;;;3.70;2.67;;;37.40;56.20;;;;;;5043107;28;20806;-70
2021/06/04 10:14:49;;;;;;;4.70;2.60;;;37.10;56.80;;;;;;5033670;28;20803;-70
2021/06/04 10:20:44;;;;;;;3.60;2.60;;;37.90;56.70;;;;;;5049605;28;20394;-73
2021/06/04 10:23:18;;;;;;;3.70;2.57;;;38.00;56.30;;;;;;5038351;28;20427;-72
2021/06/04 10:25:59;;;;;;;4.07;2.77;;;37.80;55.30;;;;;;5048030;28;20446;-74
2021/06/04 10:29:17;;;;;;;3.67;2.50;;;37.50;55.10;;;;;;5050564;28;20398;-73
2021/06/04 10:31:49;;;;;;;5.10;2.63;;;37.30;55.10;;;;;;4992189;28;20427;-71
2021/06/04 10:34:41;;;;;;;4.17;2.60;;;36.90;55.20;;;;;;5045441;28;20958;-73
2021/06/04 10:37:23;;;;;;;3.70;2.40;;;37.00;55.20;;;;;;5051965;28;20423;-73
2021/06/04 10:40:01;;;;;;;3.30;1.90;;;36.20;55.80;;;;;;5046252;28;20398;-68
2021/06/04 10:42:56;;;;;;;4.30;3.23;;;35.60;56.10;;;;;;5044024;28;20416;-70
2021/06/04 10:45:31;;;;;;;4.00;2.23;;;35.10;56.90;;;;;;5043353;28;20812;-71
2021/06/04 10:48:26;;;;;;;5.40;2.47;;;35.10;59.30;;;;;;5042742;28;20428;-67
2021/06/04 10:51:01;;;;;;;4.40;2.80;;;35.50;58.50;;;;;;5048063;28;20482;-67
2021/06/04 10:53:59;;;;;;;3.60;2.57;;;36.10;56.30;;;;;;5044677;28;20504;-70
2021/06/04 10:56:38;;;;;;;4.20;2.70;;;36.20;56.00;;;;;;5044477;28;20420;-66
2021/06/04 10:59:37;;;;;;;4.77;2.87;;;35.90;57.60;;;;;;5032374;28;20954;-69
2021/06/04 11:02:06;;;;;;;3.50;2.40;;;35.80;56.90;;;;;;5047717;28;20399;-71
2021/06/04 11:04:52;;;;;;;5.63;4.30;;;35.60;56.50;;;;;;5048004;28;20411;-70
2021/06/04 11:07:36;;;;;;;4.60;3.00;;;35.20;56.70;;;;;;5047906;28;20406;-69
2021/06/04 11:10:08;;;;;;;6.10;2.83;;;34.40;58.90;;;;;;5040931;28;20568;-72
2021/06/04 11:13:02;;;;;;;4.40;2.70;;;33.60;59.60;;;;;;5033358;28;20467;-70
2021/06/04 11:15:47;;;;;;;5.63;3.07;;;32.80;60.70;;;;;;5035033;28;20419;-67
2021/06/04 11:18:27;;;;;;;4.70;2.70;;;31.90;63.30;;;;;;5031859;28;20428;-69
2021/06/04 11:20:56;;;;;;;5.00;2.40;;;31.10;66.20;;;;;;5043529;28;20515;-74
2021/06/04 11:23:43;;;;;;;4.33;2.30;;;30.50;67.60;;;;;;5033805;28;20421;-69
2021/06/04 11:26:16;;;;;;;5.20;3.00;;;30.20;67.60;;;;;;5033188;28;20413;-68
2021/06/04 11:28:58;;;;;;;4.33;2.30;;;29.90;69.60;;;;;;5052265;28;20428;-67
2021/06/04 11:31:34;;;;;;;6.10;2.80;;;29.50;71.50;;;;;;5052131;28;20404;-68
2021/06/04 11:34:05;;;;;;;4.20;2.40;;;29.00;73.60;;;;;;5050512;28;20486;-68
2021/06/04 11:36:35;;;;;;;7.10;2.77;;;28.60;73.30;;;;;;5044079;28;20440;-68
2021/06/04 11:39:11;;;;;;;4.03;2.43;;;28.10;74.60;;;;;;5052456;28;20422;-69
2021/06/04 11:41:40;;;;;;;4.57;2.47;;;27.50;77.00;;;;;;5053377;28;21153;-66
2021/06/04 11:44:18;;;;;;;4.77;2.67;;;27.00;79.90;;;;;;5045089;28;20494;-69
2021/06/04 11:47:13;;;;;;;4.20;2.23;;;26.60;81.10;;;;;;5039223;28;20436;-67
2021/06/04 11:49:57;;;;;;;6.40;3.43;;;25.90;84.70;;;;;;5043032;28;20814;-70
2021/06/04 11:52:36;;;;;;;5.80;2.30;;;25.10;89.70;;;;;;5036582;28;20425;-69
2021/06/04 11:55:08;;;;;;;5.27;1.90;;;24.50;91.60;;;;;;5038485;28;20453;-70
2021/06/04 11:57:54;;;;;;;4.77;2.43;;;24.00;93.60;;;;;;5054447;28;20432;-71
2021/06/04 12:00:26;;;;;;;5.13;2.13;;;23.60;94.60;;;;;;5041423;28;20491;-69
2021/06/04 12:03:17;;;;;;;4.17;2.03;;;23.00;96.80;;;;;;5055491;28;20416;-69
2021/06/04 12:05:56;;;;;;;6.43;2.23;;;22.10;99.90;;;;;;5038341;28;20453;-67
2021/06/04 12:08:22;;;;;;;5.33;2.40;;;21.20;99.90;;;;;;5055602;28;20420;-68
2021/06/04 12:11:23;;;;;;;4.93;2.53;;;20.60;99.90;;;;;;5048356;28;20435;-67
2021/06/04 12:13:49;;;;;;;8.30;3.10;;;20.20;99.90;;;;;;5041075;28;20432;-71
2021/06/04 12:16:30;;;;;;;6.20;2.50;;;19.90;99.90;;;;;;5046879;28;20452;-70
2021/06/04 12:19:14;;;;;;;8.33;3.80;;;19.80;99.90;;;;;;5055259;28;20468;-65
2021/06/04 12:24:21;;;;;;;6.60;3.13;;;19.80;99.90;;;;;;5055149;28;20522;-71
2021/06/04 12:26:52;;;;;;;7.30;3.20;;;19.80;99.90;;;;;;5047073;28;20182;-66
2021/06/04 12:29:20;;;;;;;7.90;2.73;;;19.80;99.90;;;;;;5050869;28;20418;-68
2021/06/04 12:32:04;;;;;;;6.83;3.17;;;19.80;99.90;;;;;;5055616;28;20474;-67
2021/06/04 12:34:36;;;;;;;5.77;2.27;;;19.80;99.90;;;;;;5053313;28;20445;-69
2021/06/04 12:37:43;;;;;;;6.27;2.30;;;19.70;99.90;;;;;;5054319;28;20410;-68
2021/06/04 12:40:30;;;;;;;6.63;2.17;;;19.70;99.90;;;;;;5037154;28;21002;-66
2021/06/04 12:43:02;;;;;;;5.93;2.00;;;19.70;99.90;;;;;;5055353;28;20437;-66
2021/06/04 12:45:32;;;;;;;6.03;2.33;;;19.60;99.90;;;;;;5040074;28;20473;-67
2021/06/04 12:48:20;;;;;;;8.30;2.40;;;19.60;99.90;;;;;;5035677;28;20407;-66
2021/06/04 12:51:00;;;;;;;5.60;2.40;;;19.70;99.90;;;;;;5037492;28;20467;-67
2021/06/04 12:53:45;;;;;;;5.40;2.37;;;19.80;99.90;;;;;;5042405;28;20460;-68
2021/06/04 12:56:25;;;;;;;9.90;4.33;;;19.90;99.90;;;;;;5055031;28;20427;-66
2021/06/04 12:59:11;;;;;;;6.00;3.00;;;20.00;99.90;;;;;;5045397;28;20958;-67
2021/06/04 13:02:08;;;;;;;7.33;2.97;;;20.10;99.90;;;;;;5054445;28;20403;-66
2021/06/04 13:04:39;;;;;;;6.33;2.10;;;20.30;99.90;;;;;;5045018;28;20527;-66
2021/06/04 13:07:32;;;;;;;5.80;2.47;;;20.50;99.90;;;;;;5041676;28;20499;-70
2021/06/04 13:10:29;;;;;;;6.60;2.63;;;20.70;99.90;;;;;;5054382;28;20817;-68
2021/06/04 13:13:35;;;;;;;6.43;2.00;;;20.80;99.90;;;;;;5055026;28;20409;-68
2021/06/04 13:16:23;;;;;;;6.30;2.03;;;20.90;99.90;;;;;;5050320;28;20495;-67
2021/06/04 13:18:55;;;;;;;7.53;2.00;;;21.00;99.90;;;;;;5048888;28;20463;-65
2021/06/04 13:21:33;;;;;;;8.43;2.47;;;20.80;99.90;;;;;;5054113;28;20836;-64